createdAt,value
2019-03-30T00:00:03.487Z,5.9
2019-03-30T00:01:27.102Z,5.9
2019-03-30T00:02:25.966Z,5.9
2019-03-30T00:03:24.844Z,5.9
2019-03-30T00:04:24.302Z,5.8
2019-03-30T00:05:23.158Z,5.8
2019-03-30T00:05:53.848Z,5.8
2019-03-30T00:06:24.591Z,5.8
2019-03-30T00:06:54.769Z,5.8
2019-03-30T00:07:25.374Z,5.8
2019-03-30T00:07:55.767Z,5.8
2019-03-30T00:08:26.456Z,5.8
2019-03-30T00:08:56.998Z,5.8
2019-03-30T00:10:18.423Z,5.8
2019-03-30T00:11:17.803Z,5.8
2019-03-30T00:12:16.573Z,5.8
2019-03-30T00:13:15.853Z,5.7
2019-03-30T00:14:14.522Z,5.7
2019-03-30T00:15:13.705Z,5.7
2019-03-30T00:15:44.299Z,5.7
2019-03-30T00:16:14.885Z,5.7
2019-03-30T00:16:45.628Z,5.7
2019-03-30T00:17:15.833Z,5.7
2019-03-30T00:17:46.518Z,5.7
2019-03-30T00:18:17.051Z,5.7
2019-03-30T00:18:47.871Z,5.7
2019-03-30T00:19:18.058Z,5.7
2019-03-30T00:19:48.742Z,5.7
2019-03-30T00:21:08.139Z,5.7
2019-03-30T00:22:07.016Z,5.7
2019-03-30T00:23:06.113Z,5.7
2019-03-30T00:24:05.490Z,5.7
2019-03-30T00:25:04.365Z,5.7
2019-03-30T00:25:34.950Z,5.7
2019-03-30T00:26:05.152Z,5.6
2019-03-30T00:26:35.890Z,5.6
2019-03-30T00:27:06.076Z,5.6
2019-03-30T00:27:36.766Z,5.6
2019-03-30T00:28:07.445Z,5.6
2019-03-30T00:28:38.031Z,5.6
2019-03-30T00:29:08.719Z,5.6
2019-03-30T00:29:39.311Z,5.6
2019-03-30T00:30:58.627Z,5.6
2019-03-30T00:31:58.021Z,5.7
2019-03-30T00:32:56.893Z,5.6
2019-03-30T00:33:56.170Z,5.7
2019-03-30T00:34:55.037Z,5.7
2019-03-30T00:35:53.905Z,5.7
2019-03-30T00:36:24.592Z,5.7
2019-03-30T00:36:55.229Z,5.7
2019-03-30T00:37:25.814Z,5.7
2019-03-30T00:37:56.507Z,5.7
2019-03-30T00:38:27.193Z,5.7
2019-03-30T00:38:57.771Z,5.6
2019-03-30T00:39:28.275Z,5.6
2019-03-30T00:40:49.707Z,5.6
2019-03-30T00:41:48.627Z,5.6
2019-03-30T00:42:47.667Z,5.6
2019-03-30T00:43:46.535Z,5.6
2019-03-30T00:44:45.240Z,5.5
2019-03-30T00:45:44.633Z,5.5
2019-03-30T00:46:43.864Z,5.5
2019-03-30T00:47:14.062Z,5.5
2019-03-30T00:48:41.922Z,5.5
2019-03-30T00:49:12.695Z,5.5
2019-03-30T00:50:39.692Z,5.4
2019-03-30T00:51:38.983Z,5.4
2019-03-30T00:52:37.895Z,5.4
2019-03-30T00:53:37.270Z,5.5
2019-03-30T00:54:35.951Z,5.5
2019-03-30T00:55:35.337Z,5.5
2019-03-30T00:56:34.008Z,5.5
2019-03-30T00:57:04.596Z,5.5
2019-03-30T00:57:35.084Z,5.5
2019-03-30T00:58:05.375Z,5.5
2019-03-30T00:58:35.971Z,5.5
2019-03-30T00:59:06.576Z,5.5
2019-03-30T01:00:30.612Z,5.5
2019-03-30T01:01:29.381Z,5.4
2019-03-30T01:02:28.747Z,5.4
2019-03-30T01:03:27.520Z,5.4
2019-03-30T01:04:26.891Z,5.4
2019-03-30T01:05:25.766Z,5.5
2019-03-30T01:07:24.022Z,5.4
2019-03-30T01:07:54.707Z,5.4
2019-03-30T01:08:25.294Z,5.4
2019-03-30T01:08:55.881Z,5.4
2019-03-30T01:10:20.818Z,5.4
2019-03-30T01:11:20.177Z,5.4
2019-03-30T01:12:19.137Z,5.4
2019-03-30T01:13:18.433Z,5.4
2019-03-30T01:14:17.202Z,5.4
2019-03-30T01:16:15.357Z,5.4
2019-03-30T01:17:14.131Z,5.4
2019-03-30T01:18:13.412Z,5.4
2019-03-30T01:18:44.001Z,5.4
2019-03-30T01:19:14.691Z,5.4
2019-03-30T01:19:45.345Z,5.4
2019-03-30T01:20:15.931Z,5.4
2019-03-30T01:21:10.583Z,5.4
2019-03-30T01:22:09.856Z,5.4
2019-03-30T01:23:08.725Z,5.4
2019-03-30T01:24:08.001Z,5.4
2019-03-30T01:25:06.901Z,5.4
2019-03-30T01:26:05.684Z,5.4
2019-03-30T01:27:05.050Z,5.4
2019-03-30T01:28:03.840Z,5.4
2019-03-30T01:29:03.129Z,5.4
2019-03-30T01:29:33.620Z,5.4
2019-03-30T01:30:04.220Z,5.4
2019-03-30T01:31:01.082Z,5.4
2019-03-30T01:31:59.954Z,5.4
2019-03-30T01:32:59.247Z,5.4
2019-03-30T01:33:58.131Z,5.4
2019-03-30T01:34:28.824Z,5.4
2019-03-30T01:34:59.610Z,5.5
2019-03-30T01:35:56.517Z,5.4
2019-03-30T01:36:55.291Z,5.5
2019-03-30T01:37:54.673Z,5.5
2019-03-30T01:38:53.546Z,5.5
2019-03-30T01:39:24.244Z,5.5
2019-03-30T01:39:54.432Z,5.5
2019-03-30T01:40:51.589Z,5.5
2019-03-30T01:41:50.964Z,5.6
2019-03-30T01:42:49.630Z,5.6
2019-03-30T01:43:49.006Z,5.6
2019-03-30T01:44:19.691Z,5.6
2019-03-30T01:44:50.396Z,5.6
2019-03-30T01:45:21.077Z,5.6
2019-03-30T01:45:51.770Z,5.6
2019-03-30T01:46:46.125Z,5.6
2019-03-30T01:47:45.000Z,5.6
2019-03-30T01:48:44.270Z,5.6
2019-03-30T01:49:43.136Z,5.7
2019-03-30T01:50:41.995Z,5.7
2019-03-30T01:51:41.363Z,5.7
2019-03-30T01:52:40.238Z,5.7
2019-03-30T01:53:39.424Z,5.7
2019-03-30T01:54:10.113Z,5.7
2019-03-30T01:54:40.699Z,5.7
2019-03-30T01:55:11.385Z,5.7
2019-03-30T01:56:36.427Z,5.7
2019-03-30T01:57:35.802Z,5.7
2019-03-30T01:58:34.574Z,5.7
2019-03-30T01:59:33.347Z,5.7
2019-03-30T02:00:32.728Z,5.7
2019-03-30T02:01:31.992Z,5.7
2019-03-30T02:02:30.767Z,5.7
2019-03-30T02:03:30.031Z,5.7
2019-03-30T02:04:00.618Z,5.7
2019-03-30T02:04:31.198Z,5.7
2019-03-30T02:05:01.907Z,5.7
2019-03-30T02:06:26.857Z,5.7
2019-03-30T02:07:26.130Z,5.6
2019-03-30T02:08:24.911Z,5.6
2019-03-30T02:09:24.088Z,5.6
2019-03-30T02:10:23.390Z,5.6
2019-03-30T02:11:22.164Z,5.6
2019-03-30T02:12:21.655Z,5.6
2019-03-30T02:13:20.614Z,5.7
2019-03-30T02:13:50.813Z,5.7
2019-03-30T02:14:21.499Z,5.7
2019-03-30T02:14:52.179Z,5.7
2019-03-30T02:15:22.676Z,5.8
2019-03-30T02:15:53.265Z,5.8
2019-03-30T02:17:16.703Z,5.8
2019-03-30T02:18:15.481Z,5.8
2019-03-30T02:19:14.855Z,5.8
2019-03-30T02:20:13.625Z,5.9
2019-03-30T02:21:12.995Z,6
2019-03-30T02:22:11.862Z,6
2019-03-30T02:23:11.043Z,6
2019-03-30T02:23:41.749Z,6
2019-03-30T02:24:12.356Z,6.1
2019-03-30T02:24:42.858Z,6.1
2019-03-30T02:25:13.442Z,6
2019-03-30T02:25:43.943Z,6
2019-03-30T02:26:14.628Z,6.1
2019-03-30T02:26:45.320Z,6.1
2019-03-30T02:28:07.562Z,6.2
2019-03-30T02:29:05.225Z,6.2
2019-03-30T02:30:04.605Z,6.3
2019-03-30T02:31:03.519Z,6.3
2019-03-30T02:32:02.433Z,6.3
2019-03-30T02:33:01.212Z,6.4
2019-03-30T02:33:31.916Z,6.4
2019-03-30T02:34:02.613Z,6.4
2019-03-30T02:34:32.759Z,6.4
2019-03-30T02:35:03.093Z,6.5
2019-03-30T02:35:33.707Z,6.5
2019-03-30T02:36:03.921Z,6.5
2019-03-30T02:36:34.115Z,6.5
2019-03-30T02:37:04.820Z,6.5
2019-03-30T02:37:35.028Z,6.5
2019-03-30T02:38:55.700Z,6.4
2019-03-30T02:39:55.107Z,6.4
2019-03-30T02:40:53.996Z,6.4
2019-03-30T02:41:53.292Z,6.4
2019-03-30T02:42:52.203Z,6.4
2019-03-30T02:43:22.412Z,6.4
2019-03-30T02:43:52.630Z,6.4
2019-03-30T02:44:22.853Z,6.4
2019-03-30T02:44:53.053Z,6.4
2019-03-30T02:45:23.763Z,6.4
2019-03-30T02:45:54.390Z,6.5
2019-03-30T02:46:24.623Z,6.5
2019-03-30T02:46:55.130Z,6.5
2019-03-30T02:47:25.761Z,6.5
2019-03-30T02:48:46.305Z,6.4
2019-03-30T02:49:45.592Z,6.4
2019-03-30T02:50:51.184Z,6.4
2019-03-30T02:51:43.565Z,6.4
2019-03-30T02:52:42.898Z,6.4
2019-03-30T02:53:41.610Z,6.4
2019-03-30T02:54:11.822Z,6.4
2019-03-30T02:54:41.945Z,6.4
2019-03-30T02:55:13.335Z,6.4
2019-03-30T02:55:42.521Z,6.3
2019-03-30T02:56:12.743Z,6.3
2019-03-30T02:56:42.947Z,6.3
2019-03-30T02:57:13.564Z,6.3
2019-03-30T02:57:44.190Z,6.3
2019-03-30T02:58:14.317Z,6.3
2019-03-30T02:59:36.395Z,6.3
2019-03-30T03:00:35.301Z,6.3
2019-03-30T03:01:34.199Z,6.2
2019-03-30T03:02:33.122Z,6.2
2019-03-30T03:03:32.530Z,6.2
2019-03-30T03:04:03.175Z,6.2
2019-03-30T03:04:33.390Z,6.2
2019-03-30T03:05:03.997Z,6.2
2019-03-30T03:05:34.561Z,6.2
2019-03-30T03:06:04.668Z,6.2
2019-03-30T03:06:35.436Z,6.1
2019-03-30T03:07:05.638Z,6.1
2019-03-30T03:07:35.838Z,6.1
2019-03-30T03:08:06.443Z,6.1
2019-03-30T03:09:27.032Z,6.1
2019-03-30T03:10:25.815Z,6.1
2019-03-30T03:11:25.111Z,6.1
2019-03-30T03:12:23.897Z,6.1
2019-03-30T03:13:22.801Z,6
2019-03-30T03:14:22.183Z,6
2019-03-30T03:14:52.882Z,6
2019-03-30T03:15:23.487Z,6
2019-03-30T03:15:54.004Z,6
2019-03-30T03:16:27.997Z,6
2019-03-30T03:16:55.355Z,6
2019-03-30T03:18:18.430Z,6
2019-03-30T03:19:17.447Z,5.9
2019-03-30T03:20:16.438Z,5.9
2019-03-30T03:21:15.335Z,5.9
2019-03-30T03:22:14.749Z,5.9
2019-03-30T03:23:13.666Z,5.9
2019-03-30T03:24:12.469Z,5.9
2019-03-30T03:25:11.904Z,5.9
2019-03-30T03:25:42.164Z,5.9
2019-03-30T03:26:12.383Z,5.9
2019-03-30T03:26:42.575Z,5.9
2019-03-30T03:27:12.925Z,5.9
2019-03-30T03:27:43.474Z,5.9
2019-03-30T03:29:08.032Z,5.8
2019-03-30T03:30:06.973Z,5.8
2019-03-30T03:31:06.142Z,5.8
2019-03-30T03:32:05.109Z,5.8
2019-03-30T03:33:04.227Z,5.8
2019-03-30T03:34:03.165Z,5.8
2019-03-30T03:35:02.396Z,5.7
2019-03-30T03:35:32.719Z,5.7
2019-03-30T03:36:02.934Z,5.7
2019-03-30T03:36:33.065Z,5.7
2019-03-30T03:37:03.794Z,5.7
2019-03-30T03:37:46.870Z,5.7
2019-03-30T03:38:58.853Z,5.7
2019-03-30T03:39:57.479Z,5.7
2019-03-30T03:40:56.800Z,5.7
2019-03-30T03:41:55.698Z,5.7
2019-03-30T03:42:54.997Z,5.7
2019-03-30T03:43:53.780Z,5.7
2019-03-30T03:44:53.120Z,5.7
2019-03-30T03:45:51.927Z,5.6
2019-03-30T03:46:22.668Z,5.6
2019-03-30T03:46:52.883Z,5.6
2019-03-30T03:47:23.542Z,5.6
2019-03-30T03:48:49.009Z,5.7
2019-03-30T03:49:48.395Z,5.7
2019-03-30T03:50:53.454Z,5.7
2019-03-30T03:51:46.304Z,5.7
2019-03-30T03:52:45.126Z,5.7
2019-03-30T03:53:44.535Z,5.7
2019-03-30T03:54:43.411Z,5.7
2019-03-30T03:55:42.712Z,5.6
2019-03-30T03:56:41.513Z,5.7
2019-03-30T03:57:11.614Z,5.7
2019-03-30T03:57:42.340Z,5.7
2019-03-30T03:58:39.731Z,5.6
2019-03-30T03:59:38.531Z,5.6
2019-03-30T04:00:37.960Z,5.6
2019-03-30T04:01:36.848Z,5.6
2019-03-30T04:02:35.768Z,5.6
2019-03-30T04:03:35.138Z,5.6
2019-03-30T04:04:33.938Z,5.6
2019-03-30T04:05:33.316Z,5.6
2019-03-30T04:06:32.193Z,5.6
2019-03-30T04:07:30.982Z,5.6
2019-03-30T04:08:30.294Z,5.6
2019-03-30T04:09:29.172Z,5.6
2019-03-30T04:10:28.554Z,5.6
2019-03-30T04:11:27.464Z,5.5
2019-03-30T04:12:26.740Z,5.6
2019-03-30T04:12:57.342Z,5.6
2019-03-30T04:13:28.058Z,5.5
2019-03-30T04:14:24.427Z,5.5
2019-03-30T04:15:23.721Z,5.5
2019-03-30T04:16:22.632Z,5.5
2019-03-30T04:17:22.045Z,5.5
2019-03-30T04:18:20.926Z,5.5
2019-03-30T04:19:19.806Z,5.4
2019-03-30T04:21:18.087Z,5.4
2019-03-30T04:22:17.015Z,5.4
2019-03-30T04:22:47.508Z,5.4
2019-03-30T04:24:15.069Z,5.4
2019-03-30T04:25:14.475Z,5.3
2019-03-30T04:26:13.348Z,5.3
2019-03-30T04:27:12.159Z,5.3
2019-03-30T04:28:11.449Z,5.3
2019-03-30T04:29:10.304Z,5.3
2019-03-30T04:30:09.716Z,5.3
2019-03-30T04:31:08.607Z,5.2
2019-03-30T04:32:07.500Z,5.2
2019-03-30T04:32:37.496Z,5.2
2019-03-30T04:33:08.177Z,5.2
2019-03-30T04:33:38.868Z,5.2
2019-03-30T04:35:04.868Z,5.2
2019-03-30T04:36:03.682Z,5.2
2019-03-30T04:37:03.091Z,5.3
2019-03-30T04:38:01.884Z,5.2
2019-03-30T04:39:01.195Z,5.2
2019-03-30T04:40:00.315Z,5.2
2019-03-30T04:40:59.229Z,5.2
2019-03-30T04:41:57.904Z,5.2
2019-03-30T04:42:28.603Z,5.2
2019-03-30T04:42:59.199Z,5.2
2019-03-30T04:43:29.402Z,5.2
2019-03-30T04:43:59.600Z,5.2
2019-03-30T04:44:30.185Z,5.2
2019-03-30T04:45:54.223Z,5.2
2019-03-30T04:46:53.589Z,5.1
2019-03-30T04:47:52.363Z,5.1
2019-03-30T04:48:51.740Z,5.1
2019-03-30T04:49:50.645Z,5.1
2019-03-30T04:50:49.408Z,5.1
2019-03-30T04:51:58.507Z,5.1
2019-03-30T04:52:19.117Z,5.1
2019-03-30T04:52:49.710Z,5.1
2019-03-30T04:53:20.395Z,5.1
2019-03-30T04:53:51.000Z,5.1
2019-03-30T04:54:21.686Z,5.1
2019-03-30T04:55:44.701Z,5.1
2019-03-30T04:56:43.980Z,5.1
2019-03-30T04:57:42.857Z,5.1
2019-03-30T04:58:42.227Z,5.1
2019-03-30T04:59:40.991Z,5.1
2019-03-30T05:00:40.266Z,5.1
2019-03-30T05:01:39.146Z,5.1
2019-03-30T05:02:09.342Z,5.1
2019-03-30T05:02:39.605Z,5.1
2019-03-30T05:03:10.185Z,5.1
2019-03-30T05:03:40.871Z,5
2019-03-30T05:04:11.557Z,5
2019-03-30T05:04:42.138Z,5
2019-03-30T05:05:12.719Z,5
2019-03-30T05:06:34.232Z,5
2019-03-30T05:07:33.638Z,5
2019-03-30T05:08:32.407Z,5
2019-03-30T05:09:31.583Z,5
2019-03-30T05:10:30.444Z,5
2019-03-30T05:11:29.813Z,5
2019-03-30T05:12:00.501Z,5
2019-03-30T05:12:31.195Z,5
2019-03-30T05:13:01.893Z,5
2019-03-30T05:13:32.474Z,5
2019-03-30T05:14:03.154Z,5
2019-03-30T05:14:33.737Z,5
2019-03-30T05:15:04.473Z,5
2019-03-30T05:15:34.648Z,5
2019-03-30T05:16:05.279Z,5
2019-03-30T05:17:24.083Z,5
2019-03-30T05:18:22.944Z,5
2019-03-30T05:19:21.827Z,5
2019-03-30T05:20:21.004Z,5
2019-03-30T05:21:20.266Z,5
2019-03-30T05:21:50.955Z,5
2019-03-30T05:22:21.539Z,5
2019-03-30T05:22:52.234Z,5
2019-03-30T05:23:22.917Z,5
2019-03-30T05:23:53.493Z,5
2019-03-30T05:24:24.174Z,5
2019-03-30T05:24:54.865Z,5
2019-03-30T05:25:25.453Z,5
2019-03-30T05:25:56.139Z,5
2019-03-30T05:27:14.531Z,5.1
2019-03-30T05:28:13.219Z,5.1
2019-03-30T05:29:12.582Z,5.2
2019-03-30T05:30:11.446Z,5.2
2019-03-30T05:31:10.327Z,5.3
2019-03-30T05:32:09.713Z,5.3
2019-03-30T05:32:42.349Z,5.3
2019-03-30T05:33:11.028Z,5.3
2019-03-30T05:33:41.712Z,5.3
2019-03-30T05:34:12.388Z,5.3
2019-03-30T05:34:42.980Z,5.3
2019-03-30T05:35:13.459Z,5.4
2019-03-30T05:35:44.121Z,5.4
2019-03-30T05:37:04.638Z,5.4
2019-03-30T05:38:03.918Z,5.4
2019-03-30T05:39:02.804Z,5.4
2019-03-30T05:40:02.101Z,5.5
2019-03-30T05:41:01.065Z,5.4
2019-03-30T05:41:59.948Z,5.4
2019-03-30T05:42:30.521Z,5.4
2019-03-30T05:43:01.294Z,5.5
2019-03-30T05:43:31.792Z,5.5
2019-03-30T05:44:02.382Z,5.5
2019-03-30T05:44:32.992Z,5.5
2019-03-30T05:45:03.578Z,5.5
2019-03-30T05:45:33.850Z,5.5
2019-03-30T05:46:55.276Z,5.5
2019-03-30T05:47:54.186Z,5.5
2019-03-30T05:48:53.546Z,5.5
2019-03-30T05:49:52.310Z,5.5
2019-03-30T05:50:51.684Z,5.5
2019-03-30T05:51:50.548Z,5.5
2019-03-30T05:52:49.312Z,5.5
2019-03-30T05:53:19.994Z,5.5
2019-03-30T05:53:50.682Z,5.5
2019-03-30T05:54:21.358Z,5.5
2019-03-30T05:54:52.037Z,5.5
2019-03-30T05:55:22.725Z,5.5
2019-03-30T05:56:45.740Z,5.5
2019-03-30T05:57:45.025Z,5.5
2019-03-30T05:58:43.790Z,5.5
2019-03-30T05:59:43.150Z,5.6
2019-03-30T06:00:41.844Z,5.6
2019-03-30T06:01:41.216Z,5.5
2019-03-30T06:02:39.976Z,5.6
2019-03-30T06:03:39.341Z,5.6
2019-03-30T06:04:09.924Z,5.6
2019-03-30T06:04:40.434Z,5.5
2019-03-30T06:05:11.008Z,5.5
2019-03-30T06:06:36.033Z,5.6
2019-03-30T06:07:35.305Z,5.6
2019-03-30T06:08:34.182Z,5.6
2019-03-30T06:09:33.556Z,5.6
2019-03-30T06:10:32.430Z,5.6
2019-03-30T06:11:31.257Z,5.6
2019-03-30T06:12:30.529Z,5.7
2019-03-30T06:13:29.394Z,5.7
2019-03-30T06:14:28.763Z,5.7
2019-03-30T06:14:59.343Z,5.7
2019-03-30T06:16:26.804Z,5.8
2019-03-30T06:17:25.759Z,5.8
2019-03-30T06:18:25.068Z,5.8
2019-03-30T06:19:23.763Z,5.8
2019-03-30T06:20:22.933Z,5.8
2019-03-30T06:21:22.103Z,5.8
2019-03-30T06:22:20.965Z,5.8
2019-03-30T06:23:20.356Z,5.8
2019-03-30T06:24:19.209Z,5.8
2019-03-30T06:24:49.781Z,5.8
2019-03-30T06:25:19.977Z,5.8
2019-03-30T06:25:50.190Z,5.8
2019-03-30T06:26:20.876Z,5.9
2019-03-30T06:27:16.221Z,5.9
2019-03-30T06:28:15.612Z,6
2019-03-30T06:29:14.397Z,6
2019-03-30T06:30:13.661Z,6
2019-03-30T06:31:12.466Z,6
2019-03-30T06:32:11.833Z,6.1
2019-03-30T06:33:10.695Z,6.1
2019-03-30T06:34:09.566Z,6.1
2019-03-30T06:35:08.845Z,6.2
2019-03-30T06:36:07.760Z,6.2
2019-03-30T06:37:06.637Z,6.2
2019-03-30T06:38:06.017Z,6.2
2019-03-30T06:39:04.801Z,6.2
2019-03-30T06:40:04.171Z,6.2
2019-03-30T06:40:34.580Z,6.2
2019-03-30T06:41:05.270Z,6.2
2019-03-30T06:41:35.764Z,6.2
2019-03-30T06:42:06.453Z,6.3
2019-03-30T06:43:01.311Z,6.3
2019-03-30T06:43:59.982Z,6.3
2019-03-30T06:44:59.339Z,6.3
2019-03-30T06:45:58.413Z,6.3
2019-03-30T06:46:57.199Z,6.3
2019-03-30T06:47:56.473Z,6.4
2019-03-30T06:48:55.345Z,6.4
2019-03-30T06:49:54.614Z,6.4
2019-03-30T06:50:25.197Z,6.4
2019-03-30T06:50:55.833Z,6.4
2019-03-30T06:51:26.069Z,6.4
2019-03-30T06:51:56.730Z,6.5
2019-03-30T06:52:26.924Z,6.5
2019-03-30T06:52:59.382Z,6.5
2019-03-30T06:53:50.753Z,6.5
2019-03-30T06:54:49.652Z,6.5
2019-03-30T06:55:49.022Z,6.6
2019-03-30T06:56:47.899Z,6.6
2019-03-30T06:57:47.264Z,6.7
2019-03-30T06:59:45.410Z,6.7
2019-03-30T07:00:16.171Z,6.7
2019-03-30T07:00:46.357Z,6.8
2019-03-30T07:01:16.844Z,6.8
2019-03-30T07:02:42.388Z,6.9
2019-03-30T07:03:41.660Z,6.9
2019-03-30T07:05:39.717Z,7.1
2019-03-30T07:06:38.585Z,7.1
2019-03-30T07:07:37.455Z,7.2
2019-03-30T07:08:36.581Z,7.2
2019-03-30T07:09:35.946Z,7.2
2019-03-30T07:10:06.631Z,7.2
2019-03-30T07:10:39.016Z,7.3
2019-03-30T07:11:21.854Z,7.3
2019-03-30T07:11:37.950Z,7.3
2019-03-30T07:12:08.632Z,7.3
2019-03-30T07:13:32.153Z,7.4
2019-03-30T07:14:31.021Z,7.4
2019-03-30T07:15:30.198Z,7.4
2019-03-30T07:16:29.516Z,7.4
2019-03-30T07:17:28.595Z,7.5
2019-03-30T07:18:27.366Z,7.5
2019-03-30T07:19:26.740Z,7.5
2019-03-30T07:19:56.937Z,7.5
2019-03-30T07:20:27.623Z,7.5
2019-03-30T07:20:58.317Z,7.5
2019-03-30T07:22:23.652Z,7.6
2019-03-30T07:22:54.328Z,7.6
2019-03-30T07:23:24.551Z,7.6
2019-03-30T07:23:55.134Z,7.6
2019-03-30T07:25:21.211Z,7.7
2019-03-30T07:27:18.958Z,7.8
2019-03-30T07:28:18.389Z,7.8
2019-03-30T07:29:17.277Z,7.8
2019-03-30T07:29:47.961Z,7.8
2019-03-30T07:31:15.423Z,7.9
2019-03-30T07:31:46.102Z,7.9
2019-03-30T07:32:16.793Z,8
2019-03-30T07:32:47.481Z,8
2019-03-30T07:33:18.156Z,8
2019-03-30T07:33:48.842Z,8
2019-03-30T07:35:11.869Z,8
2019-03-30T07:36:10.636Z,8.1
2019-03-30T07:37:10.003Z,8.1
2019-03-30T07:38:08.878Z,8.1
2019-03-30T07:39:08.241Z,8.1
2019-03-30T07:39:38.923Z,8.1
2019-03-30T07:40:09.509Z,8.1
2019-03-30T07:40:40.193Z,8.1
2019-03-30T07:41:10.892Z,8.2
2019-03-30T07:41:41.475Z,8.2
2019-03-30T07:42:12.162Z,8.3
2019-03-30T07:42:42.840Z,8.3
2019-03-30T07:43:13.563Z,8.3
2019-03-30T07:43:43.662Z,8.3
2019-03-30T07:45:02.615Z,8.4
2019-03-30T07:46:01.380Z,8.4
2019-03-30T07:47:00.664Z,8.5
2019-03-30T07:47:59.937Z,8.5
2019-03-30T07:48:58.804Z,8.5
2019-03-30T07:49:57.682Z,8.5
2019-03-30T07:50:28.274Z,8.5
2019-03-30T07:50:58.963Z,8.6
2019-03-30T07:51:33.067Z,8.6
2019-03-30T07:52:00.195Z,8.7
2019-03-30T07:52:30.510Z,8.7
2019-03-30T07:53:00.764Z,8.7
2019-03-30T07:53:45.443Z,8.7
2019-03-30T07:54:53.328Z,8.7
2019-03-30T07:55:52.503Z,8.8
2019-03-30T07:56:22.983Z,8.8
2019-03-30T07:57:17.531Z,8.9
2019-03-30T07:57:23.929Z,8.9
2019-03-30T07:57:54.602Z,8.9
2019-03-30T07:58:49.618Z,8.9
2019-03-30T07:59:48.949Z,8.9
2019-03-30T08:00:47.933Z,8.9
2019-03-30T08:01:17.931Z,8.9
2019-03-30T08:01:48.600Z,8.9
2019-03-30T08:02:19.299Z,8.9
2019-03-30T08:02:49.793Z,9
2019-03-30T08:03:20.396Z,9
2019-03-30T08:03:50.984Z,8.9
2019-03-30T08:04:21.666Z,8.9
2019-03-30T08:05:43.078Z,9
2019-03-30T08:06:42.362Z,9
2019-03-30T08:07:41.672Z,9
2019-03-30T08:08:40.541Z,9.1
2019-03-30T08:09:39.822Z,9.2
2019-03-30T08:10:39.009Z,9.3
2019-03-30T08:11:09.492Z,9.3
2019-03-30T08:11:40.168Z,9.4
2019-03-30T08:12:10.850Z,9.4
2019-03-30T08:12:41.437Z,9.4
2019-03-30T08:13:12.026Z,9.4
2019-03-30T08:13:42.616Z,9.4
2019-03-30T08:14:13.203Z,9.4
2019-03-30T08:15:33.926Z,9.4
2019-03-30T08:16:33.291Z,9.4
2019-03-30T08:17:32.464Z,9.4
2019-03-30T08:18:31.746Z,9.4
2019-03-30T08:19:30.516Z,9.6
2019-03-30T08:20:29.893Z,9.7
2019-03-30T08:21:28.770Z,9.7
2019-03-30T08:21:59.354Z,9.7
2019-03-30T08:22:30.028Z,9.7
2019-03-30T08:23:00.625Z,9.7
2019-03-30T08:23:41.228Z,9.8
2019-03-30T08:24:01.855Z,9.8
2019-03-30T08:25:25.378Z,9.8
2019-03-30T08:26:24.449Z,9.9
2019-03-30T08:27:23.307Z,10
2019-03-30T08:28:22.582Z,10
2019-03-30T08:29:21.442Z,10.1
2019-03-30T08:30:20.808Z,10
2019-03-30T08:31:19.671Z,10.1
2019-03-30T08:32:19.029Z,10.1
2019-03-30T08:32:49.511Z,10.1
2019-03-30T08:33:20.003Z,10.2
2019-03-30T08:33:50.486Z,10.2
2019-03-30T08:34:21.079Z,10.2
2019-03-30T08:34:51.757Z,10.2
2019-03-30T08:35:22.345Z,10.2
2019-03-30T08:36:15.162Z,10.2
2019-03-30T08:37:14.440Z,10.3
2019-03-30T08:38:13.893Z,10.4
2019-03-30T08:39:12.815Z,10.4
2019-03-30T08:40:11.684Z,10.5
2019-03-30T08:41:11.081Z,10.5
2019-03-30T08:42:09.953Z,10.6
2019-03-30T08:43:09.313Z,10.7
2019-03-30T08:43:39.993Z,10.7
2019-03-30T08:44:10.579Z,10.7
2019-03-30T08:46:06.312Z,10.8
2019-03-30T08:47:05.492Z,10.8
2019-03-30T08:48:04.858Z,10.8
2019-03-30T08:49:03.662Z,10.8
2019-03-30T08:50:03.038Z,10.9
2019-03-30T08:51:01.799Z,11
2019-03-30T08:52:01.166Z,11
2019-03-30T08:53:00.077Z,11
2019-03-30T08:53:59.351Z,11
2019-03-30T08:54:58.741Z,11
2019-03-30T08:55:57.605Z,11
2019-03-30T08:56:56.968Z,11
2019-03-30T08:57:55.647Z,11
2019-03-30T08:59:53.910Z,11.2
2019-03-30T09:00:53.087Z,11.2
2019-03-30T09:01:52.454Z,11.3
2019-03-30T09:02:51.218Z,11.3
2019-03-30T09:03:50.483Z,11.3
2019-03-30T09:04:49.860Z,11.3
2019-03-30T09:05:48.654Z,11.4
2019-03-30T09:06:47.936Z,11.4
2019-03-30T09:07:47.306Z,11.5
2019-03-30T09:08:45.980Z,11.5
2019-03-30T09:09:16.675Z,11.5
2019-03-30T09:10:44.735Z,11.6
2019-03-30T09:11:44.333Z,11.6
2019-03-30T09:12:42.705Z,11.7
2019-03-30T09:13:42.080Z,11.8
2019-03-30T09:14:40.955Z,11.9
2019-03-30T09:15:40.147Z,11.9
2019-03-30T09:16:39.633Z,11.9
2019-03-30T09:17:38.203Z,12
2019-03-30T09:18:37.567Z,12
2019-03-30T09:19:08.055Z,12
2019-03-30T09:19:38.649Z,12
2019-03-30T09:20:09.339Z,12
2019-03-30T09:21:34.781Z,12.1
2019-03-30T09:22:34.139Z,12.1
2019-03-30T09:23:33.327Z,12.2
2019-03-30T09:24:32.194Z,12.2
2019-03-30T09:25:31.379Z,12.2
2019-03-30T09:26:30.745Z,12.2
2019-03-30T09:28:28.958Z,12.3
2019-03-30T09:28:59.539Z,12.3
2019-03-30T09:29:30.230Z,12.3
2019-03-30T09:30:00.815Z,12.3
2019-03-30T09:30:31.500Z,12.4
2019-03-30T09:31:02.178Z,12.4
2019-03-30T09:32:25.712Z,12.4
2019-03-30T09:33:24.885Z,12.4
2019-03-30T09:34:23.654Z,12.5
2019-03-30T09:35:23.105Z,12.5
2019-03-30T09:38:20.247Z,12.5
2019-03-30T09:38:50.747Z,12.5
2019-03-30T09:39:21.443Z,12.6
2019-03-30T09:39:52.030Z,12.6
2019-03-30T09:40:22.612Z,12.7
2019-03-30T09:40:53.198Z,12.7
2019-03-30T09:41:23.871Z,12.7
2019-03-30T09:41:54.551Z,12.7
2019-03-30T09:44:15.355Z,12.9
2019-03-30T09:45:14.223Z,12.9
2019-03-30T09:46:13.493Z,12.9
2019-03-30T09:47:12.786Z,13
2019-03-30T09:48:12.153Z,13
2019-03-30T09:48:42.742Z,13
2019-03-30T09:49:13.433Z,13
2019-03-30T09:49:44.117Z,13
2019-03-30T09:50:14.702Z,13
2019-03-30T09:50:45.413Z,13
2019-03-30T09:51:15.991Z,13.1
2019-03-30T09:51:46.667Z,13.1
2019-03-30T09:52:17.161Z,13.1
2019-03-30T09:52:47.851Z,13.1
2019-03-30T09:54:06.752Z,13.2
2019-03-30T09:55:06.023Z,13.3
2019-03-30T09:56:05.402Z,13.4
2019-03-30T09:57:04.263Z,13.4
2019-03-30T09:59:02.494Z,13.5
2019-03-30T09:59:33.176Z,13.5
2019-03-30T10:00:03.861Z,13.5
2019-03-30T10:00:34.466Z,13.5
2019-03-30T10:02:00.007Z,13.6
2019-03-30T10:02:30.482Z,13.6
2019-03-30T10:03:01.167Z,13.6
2019-03-30T10:03:31.354Z,13.6
2019-03-30T10:04:57.398Z,13.7
2019-03-30T10:05:56.574Z,13.7
2019-03-30T10:06:55.943Z,13.8
2019-03-30T10:07:55.232Z,13.8
2019-03-30T10:08:54.088Z,13.8
2019-03-30T10:09:24.570Z,13.8
2019-03-30T10:09:55.169Z,13.9
2019-03-30T10:10:25.741Z,13.9
2019-03-30T10:10:56.023Z,14
2019-03-30T10:11:26.618Z,14
2019-03-30T10:12:51.166Z,14.1
2019-03-30T10:13:21.862Z,14.1
2019-03-30T10:13:51.931Z,14.2
2019-03-30T10:14:49.302Z,14.2
2019-03-30T10:15:48.670Z,14.2
2019-03-30T10:16:49.317Z,14.2
2019-03-30T10:17:46.682Z,14.2
2019-03-30T10:18:46.021Z,14.2
2019-03-30T10:20:05.350Z,14.2
2019-03-30T10:20:16.000Z,14.2
2019-03-30T10:20:46.680Z,14.2
2019-03-30T10:21:17.355Z,14.2
2019-03-30T10:21:47.954Z,14.2
2019-03-30T10:22:18.535Z,14.2
2019-03-30T10:22:49.022Z,14.2
2019-03-30T10:23:19.698Z,14.2
2019-03-30T10:25:40.087Z,14.4
2019-03-30T10:26:39.445Z,14.5
2019-03-30T10:27:38.744Z,14.6
2019-03-30T10:28:37.886Z,14.6
2019-03-30T10:29:37.155Z,14.6
2019-03-30T10:30:36.030Z,14.7
2019-03-30T10:31:06.716Z,14.7
2019-03-30T10:31:37.388Z,14.7
2019-03-30T10:32:08.072Z,14.7
2019-03-30T10:32:38.750Z,14.8
2019-03-30T10:33:09.424Z,14.8
2019-03-30T10:34:32.855Z,15
2019-03-30T10:35:32.039Z,15
2019-03-30T10:36:31.428Z,15
2019-03-30T10:37:30.196Z,15.1
2019-03-30T10:39:28.948Z,15
2019-03-30T10:40:28.318Z,14.9
2019-03-30T10:41:27.186Z,14.9
2019-03-30T10:41:57.877Z,14.9
2019-03-30T10:44:24.816Z,15
2019-03-30T10:45:24.122Z,15
2019-03-30T10:46:23.483Z,15
2019-03-30T10:47:22.146Z,15
2019-03-30T10:48:21.420Z,15
2019-03-30T10:49:20.796Z,15
2019-03-30T10:50:20.072Z,15
2019-03-30T10:51:19.531Z,15
2019-03-30T10:52:18.312Z,15.1
2019-03-30T10:52:49.005Z,15.1
2019-03-30T10:53:19.499Z,15.1
2019-03-30T10:53:50.178Z,15.1
2019-03-30T10:54:20.666Z,15.1
2019-03-30T10:54:53.665Z,15.1
2019-03-30T10:55:21.861Z,15.1
2019-03-30T10:56:15.196Z,15.2
2019-03-30T10:57:14.470Z,15.2
2019-03-30T10:58:13.833Z,15.2
2019-03-30T10:59:12.729Z,15.3
2019-03-30T11:00:12.093Z,15.3
2019-03-30T11:01:11.459Z,15.3
2019-03-30T11:02:10.331Z,15.3
2019-03-30T11:03:09.501Z,15.3
2019-03-30T11:03:40.190Z,15.3
2019-03-30T11:04:10.864Z,15.3
2019-03-30T11:05:08.213Z,15.3
2019-03-30T11:06:07.504Z,15.2
2019-03-30T11:07:06.371Z,15.2
2019-03-30T11:08:05.829Z,15.2
2019-03-30T11:09:05.210Z,15.2
2019-03-30T11:10:04.083Z,15.2
2019-03-30T11:11:03.459Z,15.2
2019-03-30T11:12:02.736Z,15.2
2019-03-30T11:13:02.115Z,15.2
2019-03-30T11:14:00.985Z,15.3
2019-03-30T11:15:00.359Z,15.3
2019-03-30T11:15:59.754Z,15.3
2019-03-30T11:16:58.618Z,15.3
2019-03-30T11:17:57.886Z,15.3
2019-03-30T11:18:57.256Z,15.4
2019-03-30T11:19:27.854Z,15.4
2019-03-30T11:19:58.530Z,15.5
2019-03-30T11:20:29.123Z,15.5
2019-03-30T11:20:59.709Z,15.5
2019-03-30T11:21:54.852Z,15.6
2019-03-30T11:22:54.290Z,15.6
2019-03-30T11:25:09.269Z,15.6
2019-03-30T11:25:22.565Z,15.6
2019-03-30T11:25:53.247Z,15.7
2019-03-30T11:26:51.110Z,15.8
2019-03-30T11:27:50.487Z,15.8
2019-03-30T11:28:49.148Z,15.9